Terminal Aerodrome Forecast
Issued by NWS

Home | Current Version | Previous Version | Text Only | Print | Product List | Glossary Off
Versions: 1 2 3 4 5 6 7 8 9 10 11 12 13 14 15 16 17 18 19 20 21 22 23 24 25

000
FTUS43 KICT 252134 AAA
TAFSLN
TAF AMD
KSLN 252134Z 2522/2618 18012KT P6SM VCTS SCT040CB
      TEMPO 2522/2602 VRB25G40KT 1/2SM +TSRA OVC025CB
     FM260200 18013KT P6SM VCTS BKN035CB
     FM260400 16007KT P6SM SCT015 BKN050
     FM260700 17010KT P6SM SCT009 BKN015=

USA.gov is the U.S. government's official web portal to all federal, state and local government web resources and services.